Time;durP1;ratioP1;P1;durP2;ratioP2;P2;SDS_P1;SDS_P2;PMS_P1;PMS_P2;Temp;Humidity;BMP_temperature;BMP_pressure;BME280_temperature;BME280_humidity;BME280_pressure;Samples;Min_cycle;Max_cycle;Signal;HPM_P1;HPM_P2
2022/12/15 00:40:03;;;;;;;39.17;24.67;;;;;;;-2.67;90.79;94238.19;4962737;28;20218;-82
2022/12/15 00:42:29;;;;;;;48.00;28.07;;;;;;;-2.83;91.07;94240.91;4960978;28;20219;-83
2022/12/15 00:44:55;;;;;;;51.80;29.37;;;;;;;-2.83;91.31;94243.47;4955392;28;20873;-83
2022/12/15 00:47:20;;;;;;;48.23;28.33;;;;;;;-2.72;91.04;94243.59;4951197;28;20228;-82
2022/12/15 01:22:36;;;;;;;45.57;26.40;;;;;;;-2.99;92.35;94280.94;4961111;28;20195;-81
2022/12/15 01:25:03;;;;;;;53.53;26.70;;;;;;;-2.99;92.07;94284.28;4958110;28;20243;-81
2022/12/15 01:27:28;;;;;;;48.03;26.97;;;;;;;-3.03;92.15;94275.22;4941258;28;20239;-81
2022/12/15 01:29:53;;;;;;;43.53;25.70;;;;;;;-2.95;91.78;94283.16;4958727;28;20200;-81
2022/12/15 01:32:18;;;;;;;45.50;26.07;;;;;;;-2.88;91.61;94286.16;4942243;28;20241;-81
2022/12/15 01:34:44;;;;;;;43.97;25.40;;;;;;;-2.81;91.58;94286.56;4957814;28;20736;-78
2022/12/15 01:37:09;;;;;;;44.87;25.90;;;;;;;-2.81;91.37;94287.38;4958380;28;20186;-81
2022/12/15 01:42:18;;;;;;;45.83;25.80;;;;;;;-2.78;91.60;94283.81;4960829;28;20692;-82
2022/12/15 01:44:48;;;;;;;43.80;25.70;;;;;;;-2.90;91.27;94290.50;4941560;28;20220;-81
2022/12/15 01:47:13;;;;;;;46.50;26.03;;;;;;;-2.80;91.05;94299.19;4945915;28;20212;-81
2022/12/15 01:49:39;;;;;;;47.07;25.80;;;;;;;-2.75;91.27;94302.22;4950953;28;20185;-81
2022/12/15 01:52:06;;;;;;;45.73;26.90;;;;;;;-2.78;91.08;94297.34;4959266;28;20637;-80
2022/12/15 01:54:48;;;;;;;45.03;25.07;;;;;;;-2.74;91.14;94297.94;4958988;28;20209;-82
2022/12/15 01:57:17;;;;;;;44.63;25.10;;;;;;;-2.91;90.87;94297.31;4941421;28;20223;-82
2022/12/15 01:59:50;;;;;;;46.73;26.83;;;;;;;-2.87;91.12;94291.13;4955585;28;20228;-80
2022/12/15 02:02:17;;;;;;;42.57;25.30;;;;;;;-2.82;91.17;94295.94;4939369;28;20268;-80
2022/12/15 02:04:43;;;;;;;42.13;25.70;;;;;;;-2.82;91.00;94292.56;4950027;28;20208;-81
2022/12/15 02:07:13;;;;;;;40.40;24.37;;;;;;;-2.77;90.86;94298.97;4975142;28;20192;-80
2022/12/15 02:09:39;;;;;;;44.70;25.60;;;;;;;-2.84;90.71;94292.66;4939222;28;20191;-81
2022/12/15 02:12:30;;;;;;;44.10;25.27;;;;;;;-2.69;90.82;94299.28;4941615;28;20198;-80
2022/12/15 02:15:10;;;;;;;45.53;26.63;;;;;;;-2.72;90.42;94302.03;4956338;28;21247;-80
2022/12/15 02:18:00;;;;;;;44.00;25.70;;;;;;;-2.81;90.82;94307.72;4940402;28;20219;-79
2022/12/15 02:20:44;;;;;;;48.87;26.33;;;;;;;-2.87;91.12;94303.00;4944077;28;20405;-83
2022/12/15 02:23:41;;;;;;;44.63;25.53;;;;;;;-2.76;90.59;94305.69;4956853;28;20188;-79
2022/12/15 02:26:39;;;;;;;39.63;25.60;;;;;;;-2.70;90.49;94304.47;4955387;28;20243;-82
2022/12/15 02:29:28;;;;;;;45.67;27.10;;;;;;;-2.71;90.28;94313.03;4953970;28;20255;-80
2022/12/15 02:31:59;;;;;;;51.50;26.10;;;;;;;-2.73;90.13;94325.00;4956548;28;20192;-82
2022/12/15 02:34:35;;;;;;;46.97;26.33;;;;;;;-2.64;90.33;94321.88;4953551;28;20188;-80
2022/12/15 02:37:06;;;;;;;48.27;26.90;;;;;;;-2.67;89.95;94317.78;4954964;28;20239;-82
2022/12/15 02:39:32;;;;;;;44.87;26.57;;;;;;;-2.77;90.68;94328.66;4950021;28;20224;-80
2022/12/15 02:41:57;;;;;;;42.43;24.90;;;;;;;-2.62;90.93;94325.94;4941222;28;20305;-83
2022/12/15 02:44:27;;;;;;;46.27;25.93;;;;;;;-2.54;90.34;94315.28;4939964;28;20248;-82
2022/12/15 02:47:22;;;;;;;43.77;25.30;;;;;;;-2.59;89.85;94315.56;4944856;28;20279;-83
2022/12/15 02:50:24;;;;;;;42.50;25.27;;;;;;;-2.62;90.17;94313.25;4940683;28;20200;-82
2022/12/15 02:53:26;;;;;;;44.30;25.43;;;;;;;-2.60;90.28;94310.59;4971684;28;20194;-81
2022/12/15 02:56:16;;;;;;;50.83;26.37;;;;;;;-2.53;89.62;94311.03;4956595;28;20223;-83
2022/12/15 02:59:02;;;;;;;45.23;26.47;;;;;;;-2.52;89.61;94315.19;4955230;28;20738;-80
2022/12/15 03:01:57;;;;;;;41.33;25.63;;;;;;;-2.47;89.15;94316.53;4953801;28;20199;-80
2022/12/15 03:04:23;;;;;;;42.83;25.70;;;;;;;-2.61;89.37;94316.59;4935361;28;20198;-81
2022/12/15 03:06:56;;;;;;;48.80;24.90;;;;;;;-2.47;89.33;94316.53;4956248;28;20200;-80
2022/12/15 03:09:21;;;;;;;44.10;25.77;;;;;;;-2.52;88.52;94317.72;4936225;28;20549;-81
2022/12/15 03:11:46;;;;;;;48.73;26.83;;;;;;;-2.54;88.63;94319.56;4940212;28;20204;-81
2022/12/15 03:14:11;;;;;;;43.40;26.40;;;;;;;-2.58;89.37;94317.19;4940532;28;20197;-81
2022/12/15 03:16:37;;;;;;;43.53;25.53;;;;;;;-2.58;89.05;94324.00;4955990;28;20211;-82
2022/12/15 03:19:02;;;;;;;44.30;26.30;;;;;;;-2.56;89.61;94324.75;4956303;28;20608;-82
2022/12/15 03:21:27;;;;;;;42.43;25.77;;;;;;;-2.60;89.52;94334.28;4949625;28;20301;-82
2022/12/15 03:23:53;;;;;;;45.00;25.93;;;;;;;-2.48;89.67;94325.03;4956256;28;20196;-82
2022/12/15 03:26:18;;;;;;;48.13;26.00;;;;;;;-2.51;89.36;94329.53;4955742;28;20324;-81
2022/12/15 03:28:43;;;;;;;41.97;25.20;;;;;;;-2.54;89.80;94324.66;4941155;28;20189;-81
2022/12/15 03:31:08;;;;;;;46.07;25.63;;;;;;;-2.54;89.54;94327.19;4956432;28;20197;-81
2022/12/15 03:33:34;;;;;;;46.50;26.57;;;;;;;-2.52;89.89;94318.53;4956012;28;20643;-81
2022/12/15 03:35:59;;;;;;;44.53;25.50;;;;;;;-2.52;89.36;94320.28;4955108;28;20715;-81
2022/12/15 03:38:24;;;;;;;43.20;25.17;;;;;;;-2.57;89.68;94331.53;4955032;28;20275;-80
2022/12/15 03:40:50;;;;;;;42.40;25.00;;;;;;;-2.54;89.84;94330.53;4956049;28;20597;-82
2022/12/15 03:43:15;;;;;;;42.13;25.00;;;;;;;-2.59;89.79;94338.44;4955505;28;20369;-81
2022/12/15 03:45:40;;;;;;;45.77;26.10;;;;;;;-2.45;89.57;94342.66;4938918;28;20220;-82
2022/12/15 03:48:06;;;;;;;45.23;25.50;;;;;;;-2.43;89.39;94337.47;4940099;28;20668;-82
2022/12/15 03:50:31;;;;;;;46.80;25.23;;;;;;;-2.45;89.01;94341.84;4955199;28;20260;-82
2022/12/15 03:52:59;;;;;;;44.97;24.73;;;;;;;-2.41;88.23;94346.63;4956484;28;20199;-81
2022/12/15 03:55:25;;;;;;;45.77;25.63;;;;;;;-2.53;88.88;94349.16;4950021;28;20208;-82
2022/12/15 03:57:50;;;;;;;41.87;25.17;;;;;;;-2.62;88.90;94346.28;4956224;28;20184;-81
2022/12/15 04:00:17;;;;;;;43.10;24.70;;;;;;;-2.41;89.28;94353.44;4952512;28;20204;-81
2022/12/15 04:02:43;;;;;;;40.40;25.43;;;;;;;-2.38;88.48;94355.81;4956483;28;20184;-81
2022/12/15 04:05:14;;;;;;;46.40;25.23;;;;;;;-2.38;88.99;94353.25;4955591;28;20201;-82
2022/12/15 04:07:40;;;;;;;43.93;24.93;;;;;;;-2.42;88.79;94361.97;4936902;28;20283;-82
2022/12/15 04:10:05;;;;;;;41.67;25.17;;;;;;;-2.52;88.95;94377.00;4972592;28;20276;-80
2022/12/15 04:12:30;;;;;;;40.93;23.70;;;;;;;-2.43;88.79;94383.22;4970645;28;20216;-80
2022/12/15 04:14:56;;;;;;;45.13;24.67;;;;;;;-2.39;88.85;94372.75;4954957;28;20220;-81
2022/12/15 04:17:21;;;;;;;43.70;24.97;;;;;;;-2.48;89.19;94370.00;4955307;28;20196;-81
2022/12/15 04:22:30;;;;;;;37.60;23.23;;;;;;;-2.46;88.71;94370.72;4961028;28;20208;-82
2022/12/15 05:33:18;;;;;;;45.87;25.60;;;;;;;-2.54;88.86;94383.91;4958491;28;20245;-82
2022/12/15 05:35:43;;;;;;;43.30;25.33;;;;;;;-2.51;88.97;94386.25;4933852;28;21761;-77
2022/12/15 05:38:09;;;;;;;47.63;26.80;;;;;;;-2.50;89.33;94395.50;4949820;28;20189;-80
2022/12/15 05:40:34;;;;;;;47.57;27.10;;;;;;;-2.59;89.45;94399.44;4948950;28;20330;-80
2022/12/15 05:43:00;;;;;;;46.67;26.40;;;;;;;-2.52;89.66;94399.88;4949680;28;20192;-79
2022/12/15 05:45:26;;;;;;;46.17;26.07;;;;;;;-2.53;89.32;94388.09;4955339;28;20204;-81
2022/12/15 05:47:52;;;;;;;47.33;25.43;;;;;;;-2.50;89.38;94398.06;4949113;28;20914;-79
2022/12/15 05:50:17;;;;;;;48.17;26.20;;;;;;;-2.54;90.03;94395.81;4952241;28;20188;-79
2022/12/15 05:52:43;;;;;;;50.97;26.97;;;;;;;-2.50;89.40;94389.63;4941295;28;20691;-80
2022/12/15 05:55:09;;;;;;;51.00;28.07;;;;;;;-2.51;89.35;94391.34;4934631;28;20228;-82
2022/12/15 05:57:34;;;;;;;50.67;26.03;;;;;;;-2.48;89.52;94395.41;4956966;28;20180;-80
2022/12/15 05:59:59;;;;;;;46.83;26.63;;;;;;;-2.63;89.43;94398.03;4956834;28;20263;-78
2022/12/15 06:02:24;;;;;;;55.43;28.30;;;;;;;-2.51;90.05;94393.88;4940727;28;20193;-81
2022/12/15 06:04:50;;;;;;;50.10;26.43;;;;;;;-2.55;89.60;94396.72;4956068;28;20244;-80
2022/12/15 06:07:15;;;;;;;49.43;27.63;;;;;;;-2.60;89.72;94405.44;4956302;28;20211;-82
2022/12/15 06:09:40;;;;;;;49.87;25.73;;;;;;;-2.56;89.93;94406.09;4956434;28;20188;-79
2022/12/15 06:12:06;;;;;;;56.30;29.23;;;;;;;-2.59;90.11;94399.44;4940240;28;20570;-79
2022/12/15 06:14:31;;;;;;;56.30;29.43;;;;;;;-2.49;89.84;94417.47;4951878;28;20186;-81
2022/12/15 06:16:56;;;;;;;53.27;28.07;;;;;;;-2.58;89.19;94401.06;4944075;28;20763;-79
2022/12/15 06:19:22;;;;;;;52.10;29.43;;;;;;;-2.64;90.10;94395.59;4956550;28;20208;-81
2022/12/15 06:21:47;;;;;;;50.97;27.87;;;;;;;-2.65;90.48;94402.41;4956727;28;20226;-81
2022/12/15 06:24:13;;;;;;;52.67;29.00;;;;;;;-2.69;90.47;94402.66;4956808;28;20188;-81
2022/12/15 06:26:39;;;;;;;56.07;27.57;;;;;;;-2.64;89.95;94406.56;4956208;28;20216;-82
2022/12/15 06:29:09;;;;;;;49.40;27.93;;;;;;;-2.60;90.36;94413.06;4974095;28;20188;-82
2022/12/15 06:31:36;;;;;;;48.00;27.07;;;;;;;-2.65;90.62;94410.03;4945993;28;20190;-78
2022/12/15 06:34:06;;;;;;;50.60;27.23;;;;;;;-2.55;90.50;94419.59;4970505;28;20189;-79
2022/12/15 06:36:32;;;;;;;48.83;26.67;;;;;;;-2.58;90.34;94418.06;4938633;28;20215;-80
2022/12/15 06:38:59;;;;;;;45.70;26.07;;;;;;;-2.52;90.17;94414.31;4940527;28;20217;-80
2022/12/15 06:41:25;;;;;;;51.57;27.30;;;;;;;-2.50;89.52;94412.50;4946084;28;20193;-80
2022/12/15 06:43:52;;;;;;;50.63;28.20;;;;;;;-2.46;90.40;94421.56;4940671;28;20197;-81
2022/12/15 06:46:18;;;;;;;50.87;27.33;;;;;;;-2.54;89.74;94423.78;4955027;28;20255;-80
2022/12/15 06:48:44;;;;;;;50.27;27.73;;;;;;;-2.57;90.54;94417.94;4956188;28;20668;-80
2022/12/15 06:51:10;;;;;;;50.60;27.27;;;;;;;-2.49;89.93;94414.13;4940204;28;20288;-80
2022/12/15 06:53:37;;;;;;;50.43;26.87;;;;;;;-2.47;90.16;94418.22;4932053;28;20290;-80
2022/12/15 06:56:04;;;;;;;55.23;28.50;;;;;;;-2.47;90.57;94425.00;4930480;28;20212;-79
2022/12/15 06:58:30;;;;;;;53.17;27.83;;;;;;;-2.42;90.35;94423.00;4946809;28;20200;-78
2022/12/15 07:00:55;;;;;;;52.77;26.80;;;;;;;-2.41;90.88;94411.91;4961590;28;20224;-81
2022/12/15 07:03:21;;;;;;;55.77;28.73;;;;;;;-2.49;90.98;94404.75;4935810;28;20199;-82
2022/12/15 07:05:46;;;;;;;54.00;28.77;;;;;;;-2.40;90.55;94404.19;4956355;28;20216;-80
2022/12/15 07:08:13;;;;;;;51.97;28.40;;;;;;;-2.47;90.58;94400.41;4954384;28;20646;-81
2022/12/15 07:10:39;;;;;;;51.47;28.13;;;;;;;-2.43;89.99;94413.75;4948315;28;20184;-81
2022/12/15 07:13:05;;;;;;;51.33;26.73;;;;;;;-2.38;90.42;94416.81;4951431;28;20184;-82
2022/12/15 07:15:31;;;;;;;49.07;28.77;;;;;;;-2.42;90.32;94423.00;4950720;28;20208;-83
2022/12/15 07:17:56;;;;;;;50.63;29.47;;;;;;;-2.46;90.71;94419.03;4958833;28;20202;-82
2022/12/15 07:20:21;;;;;;;54.27;29.80;;;;;;;-2.37;89.89;94419.25;4959412;28;20635;-81
2022/12/15 07:22:50;;;;;;;58.53;31.37;;;;;;;-2.34;90.25;94419.06;4954404;28;20664;-80
2022/12/15 07:25:16;;;;;;;53.10;29.60;;;;;;;-2.30;90.09;94422.19;4936721;28;20209;-82
2022/12/15 07:27:41;;;;;;;50.13;28.63;;;;;;;-2.25;89.89;94427.81;4952195;28;20195;-79
2022/12/15 07:30:07;;;;;;;49.40;30.83;;;;;;;-2.28;90.11;94425.50;4955327;28;20192;-80
2022/12/15 07:32:32;;;;;;;54.67;31.17;;;;;;;-2.17;90.13;94417.97;4931312;28;20569;-81
2022/12/15 07:34:58;;;;;;;52.90;29.33;;;;;;;-2.23;89.36;94420.91;4953402;28;20220;-81
2022/12/15 07:37:23;;;;;;;49.27;29.53;;;;;;;-2.22;89.64;94421.72;4954440;28;20213;-81
2022/12/15 07:39:48;;;;;;;52.17;29.77;;;;;;;-2.18;89.65;94426.53;4955105;28;20215;-83
2022/12/15 07:42:14;;;;;;;49.93;28.67;;;;;;;-2.15;89.99;94422.97;4971551;28;20192;-80
2022/12/15 07:44:39;;;;;;;47.80;29.53;;;;;;;-2.13;89.57;94416.84;4954685;28;20228;-81
2022/12/15 07:47:05;;;;;;;52.97;29.57;;;;;;;-2.09;89.43;94425.13;4937319;28;20282;-82
2022/12/15 07:49:30;;;;;;;51.00;29.60;;;;;;;-2.06;88.94;94430.00;4949851;28;20198;-82
2022/12/15 07:51:57;;;;;;;52.97;28.17;;;;;;;-1.85;89.07;94427.81;4957498;28;20267;-79
2022/12/15 07:54:22;;;;;;;45.77;26.93;;;;;;;-1.73;87.72;94435.44;4938671;28;20196;-83
2022/12/15 07:56:48;;;;;;;48.43;27.67;;;;;;;-1.72;88.07;94436.25;4941423;28;20343;-82
2022/12/15 07:59:13;;;;;;;52.50;29.53;;;;;;;-1.77;88.20;94444.22;4978314;28;20221;-82
2022/12/15 08:01:38;;;;;;;51.10;27.77;;;;;;;-1.72;87.72;94454.06;4959702;28;20542;-83
2022/12/15 08:04:04;;;;;;;46.20;27.67;;;;;;;-1.68;87.99;94460.56;4944761;28;20227;-84
2022/12/15 08:06:29;;;;;;;50.47;29.07;;;;;;;-1.69;88.24;94461.50;4959654;28;20216;-84
2022/12/15 08:08:54;;;;;;;45.67;26.63;;;;;;;-1.55;88.31;94463.97;4946658;28;20191;-82
2022/12/15 08:11:23;;;;;;;45.10;27.77;;;;;;;-1.63;87.71;94466.19;4941527;28;20196;-83
2022/12/15 08:13:49;;;;;;;47.87;29.00;;;;;;;-1.38;87.13;94477.31;4976581;28;20203;-83
2022/12/15 08:16:14;;;;;;;46.93;27.57;;;;;;;-1.39;87.25;94466.31;4950566;28;20209;-82
2022/12/15 08:18:40;;;;;;;50.30;27.80;;;;;;;-1.29;86.55;94464.78;4975198;28;20222;-80
2022/12/15 08:21:07;;;;;;;50.70;30.53;;;;;;;-1.20;85.73;94468.44;4950604;28;20182;-82
2022/12/15 08:23:33;;;;;;;47.00;28.47;;;;;;;-1.38;84.98;94472.22;4943736;28;20187;-83
2022/12/15 08:26:07;;;;;;;49.23;27.90;;;;;;;-1.09;85.40;94486.34;4944918;28;20202;-80
2022/12/15 08:28:34;;;;;;;45.90;28.60;;;;;;;-1.17;85.13;94480.97;4940120;28;20560;-81
2022/12/15 08:31:07;;;;;;;45.93;27.47;;;;;;;-1.08;85.34;94482.88;4937897;28;20180;-83
2022/12/15 08:33:33;;;;;;;52.00;30.20;;;;;;;-1.14;85.21;94488.41;4957875;28;20189;-80
2022/12/15 08:36:03;;;;;;;48.87;28.50;;;;;;;-1.07;84.72;94496.44;4957741;28;20219;-81
2022/12/15 08:38:30;;;;;;;49.63;27.00;;;;;;;-1.02;84.31;94497.78;4943861;28;20263;-80
2022/12/15 08:40:55;;;;;;;47.40;26.67;;;;;;;-0.96;84.79;94502.47;4959411;28;20277;-79
2022/12/15 08:43:21;;;;;;;43.77;27.73;;;;;;;-1.10;84.66;94500.03;4944203;28;20648;-80
2022/12/15 08:45:46;;;;;;;45.83;27.73;;;;;;;-1.02;83.81;94499.50;4958614;28;20770;-81
2022/12/15 08:48:12;;;;;;;46.50;27.33;;;;;;;-0.86;84.11;94495.00;4954686;28;20184;-82
2022/12/15 08:50:37;;;;;;;45.10;27.63;;;;;;;-0.71;83.88;94490.56;4960656;28;20194;-80
2022/12/15 08:53:02;;;;;;;44.73;26.47;;;;;;;-0.79;83.60;94487.75;4963486;28;20669;-81
2022/12/15 08:55:27;;;;;;;44.67;27.43;;;;;;;-0.80;83.51;94491.22;4948332;28;20276;-79
2022/12/15 08:57:53;;;;;;;43.53;27.07;;;;;;;-0.84;83.32;94480.41;4958215;28;20238;-81
2022/12/15 09:00:18;;;;;;;42.43;25.37;;;;;;;-1.01;84.22;94479.00;4959506;28;20232;-82
2022/12/15 09:02:44;;;;;;;47.63;27.83;;;;;;;-0.83;83.43;94473.59;4952582;28;20541;-83
2022/12/15 09:05:09;;;;;;;51.13;28.90;;;;;;;-0.72;83.65;94476.19;4953708;28;20212;-82
2022/12/15 09:07:34;;;;;;;48.33;28.73;;;;;;;-0.58;83.28;94470.97;4957609;28;20648;-83
2022/12/15 09:10:00;;;;;;;44.53;26.97;;;;;;;-0.50;82.61;94476.34;4943920;28;20573;-80
2022/12/15 09:12:25;;;;;;;48.73;27.93;;;;;;;-0.55;83.24;94487.78;4949600;28;20200;-82
2022/12/15 09:14:50;;;;;;;47.07;26.80;;;;;;;-0.51;82.74;94479.03;4941871;28;20222;-82
2022/12/15 09:17:15;;;;;;;48.70;27.60;;;;;;;-0.36;81.67;94488.94;4975889;28;20203;-81
2022/12/15 09:19:41;;;;;;;46.63;27.93;;;;;;;-0.22;81.51;94493.09;4975433;28;20215;-80
2022/12/15 09:22:06;;;;;;;50.30;27.37;;;;;;;-0.20;81.46;94485.31;4958787;28;20296;-79
2022/12/15 09:24:32;;;;;;;53.53;29.93;;;;;;;-0.26;81.80;94495.97;4957063;28;20224;-82
2022/12/15 09:26:57;;;;;;;49.37;28.00;;;;;;;-0.15;81.02;94504.50;4959027;28;20279;-81
2022/12/15 09:29:23;;;;;;;47.70;27.03;;;;;;;-0.30;81.01;94505.56;4941656;28;20192;-81
2022/12/15 09:31:48;;;;;;;51.37;29.93;;;;;;;-0.40;82.52;94507.13;4971734;28;20315;-79
2022/12/15 09:34:14;;;;;;;48.27;27.97;;;;;;;-0.40;81.25;94507.94;4953530;28;20195;-80
2022/12/15 09:36:40;;;;;;;50.17;28.20;;;;;;;-0.30;81.80;94503.00;4953276;28;20221;-82
2022/12/15 09:39:06;;;;;;;48.53;28.63;;;;;;;-0.57;80.99;94506.56;4941348;28;20219;-81
2022/12/15 09:41:32;;;;;;;50.40;28.97;;;;;;;-0.87;83.63;94508.66;4953669;28;20207;-80
2022/12/15 09:44:13;;;;;;;54.23;29.00;;;;;;;-0.57;82.06;94508.28;4955019;28;20294;-80
2022/12/15 09:46:49;;;;;;;48.03;28.40;;;;;;;-0.60;82.46;94498.31;4954113;28;20211;-81
2022/12/15 09:49:37;;;;;;;48.67;29.50;;;;;;;-0.55;81.51;94496.25;4954204;28;20243;-79
2022/12/15 09:52:05;;;;;;;54.27;28.70;;;;;;;-0.48;82.01;94500.00;4953020;28;20827;-82
2022/12/15 09:54:32;;;;;;;53.03;29.23;;;;;;;-0.52;81.88;94500.34;4953939;28;20609;-79
2022/12/15 09:57:01;;;;;;;50.27;28.50;;;;;;;-0.36;81.37;94493.22;4941418;28;20199;-80
2022/12/15 09:59:40;;;;;;;49.87;28.97;;;;;;;-0.39;81.04;94493.44;4953364;28;20832;-80
2022/12/15 10:02:15;;;;;;;47.73;27.93;;;;;;;-0.54;81.71;94495.31;4947258;28;20258;-80
2022/12/15 10:05:09;;;;;;;46.03;27.90;;;;;;;-0.53;81.94;94496.97;4956172;28;20641;-79
2022/12/15 10:07:38;;;;;;;50.40;28.80;;;;;;;-0.57;82.38;94505.75;4957380;28;20204;-81
2022/12/15 10:10:12;;;;;;;51.10;28.97;;;;;;;-0.39;81.71;94507.03;4947227;28;20195;-78
2022/12/15 10:12:39;;;;;;;45.87;28.70;;;;;;;-0.49;82.67;94500.94;4949539;28;20191;-81
2022/12/15 10:15:23;;;;;;;56.80;33.07;;;;;;;-0.25;82.10;94495.03;4953477;28;20239;-81
2022/12/15 10:18:25;;;;;;;56.13;32.23;;;;;;;-0.38;81.31;94498.44;4975762;28;20192;-81
2022/12/15 10:20:52;;;;;;;55.60;30.80;;;;;;;0.11;79.41;94507.75;4895629;29;20264;-81
2022/12/15 10:23:18;;;;;;;52.37;29.67;;;;;;;0.22;80.01;94518.00;4888922;29;20262;-81
2022/12/15 10:25:48;;;;;;;50.57;29.27;;;;;;;0.19;77.64;94510.56;4888496;29;20217;-79
2022/12/15 10:28:19;;;;;;;52.67;29.43;;;;;;;0.25;79.23;94510.09;4896676;29;20651;-81
2022/12/15 10:30:58;;;;;;;51.97;29.07;;;;;;;0.38;79.06;94496.47;4922075;29;20196;-81
2022/12/15 10:33:25;;;;;;;53.47;29.63;;;;;;;0.36;77.92;94478.69;4902589;29;20193;-80
2022/12/15 10:35:54;;;;;;;51.57;29.83;;;;;;;0.79;77.17;94473.75;4919093;29;20281;-81
2022/12/15 10:38:37;;;;;;;49.60;29.17;;;;;;;1.27;75.71;94460.75;4924631;29;20237;-81
2022/12/15 10:41:07;;;;;;;47.67;27.33;;;;;;;1.04;75.30;94441.25;4914554;29;20640;-79
2022/12/15 10:43:35;;;;;;;43.40;27.33;;;;;;;1.48;74.74;94447.22;4889746;29;20206;-79
2022/12/15 10:46:04;;;;;;;45.00;25.47;;;;;;;1.59;73.29;94448.03;4902398;29;20284;-80
2022/12/15 10:48:29;;;;;;;45.97;26.73;;;;;;;1.44;74.12;94438.19;4890788;29;20201;-79
2022/12/15 10:51:29;;;;;;;42.70;26.23;;;;;;;1.42;74.15;94431.44;4901870;29;20250;-79
2022/12/15 10:54:11;;;;;;;49.67;27.63;;;;;;;1.01;74.25;94432.06;4909988;28;20194;-81
2022/12/15 10:56:54;;;;;;;43.07;26.00;;;;;;;0.97;74.93;94427.28;4948618;28;20215;-80
2022/12/15 10:59:32;;;;;;;44.10;27.13;;;;;;;0.99;75.20;94436.50;4953592;28;20227;-80
2022/12/15 11:02:19;;;;;;;44.93;26.77;;;;;;;0.64;77.80;94433.22;4942687;28;20274;-79
2022/12/15 11:04:54;;;;;;;43.90;25.83;;;;;;;0.97;76.56;94437.50;4953063;28;20299;-81
2022/12/15 11:07:19;;;;;;;43.33;25.67;;;;;;;0.71;75.92;94436.97;4971368;28;20331;-80
2022/12/15 11:09:45;;;;;;;45.23;26.53;;;;;;;0.80;76.25;94437.06;4951818;28;20622;-81
2022/12/15 11:15:21;;;;;;;48.80;27.87;;;;;;;0.84;77.18;94458.09;4951206;28;20614;-81
2022/12/15 11:17:50;;;;;;;46.83;27.90;;;;;;;0.73;76.46;94458.91;4954002;28;20196;-80
2022/12/15 11:20:22;;;;;;;46.20;27.63;;;;;;;0.85;76.49;94450.31;4955924;28;20295;-80
2022/12/15 11:23:15;;;;;;;48.93;29.73;;;;;;;0.64;78.00;94446.00;4957003;28;20196;-81
2022/12/15 11:26:00;;;;;;;52.17;29.13;;;;;;;0.63;77.06;94432.41;4954474;28;20204;-79
2022/12/15 11:28:33;;;;;;;50.90;29.07;;;;;;;0.57;77.54;94430.31;4969447;28;20203;-80
2022/12/15 11:31:04;;;;;;;50.73;26.80;;;;;;;0.64;77.30;94434.03;4948249;28;20649;-80
2022/12/15 11:33:29;;;;;;;53.37;29.90;;;;;;;0.49;77.74;94436.00;4974785;28;20725;-80
2022/12/15 11:36:36;;;;;;;53.80;30.53;;;;;;;0.40;78.58;94435.84;4958881;28;20219;-81
2022/12/15 11:39:08;;;;;;;48.80;29.57;;;;;;;0.32;79.27;94435.59;4958166;28;20577;-81
2022/12/15 11:41:54;;;;;;;53.10;27.90;;;;;;;0.19;79.71;94435.72;4951850;28;20196;-79
2022/12/15 11:44:50;;;;;;;49.53;29.23;;;;;;;0.19;79.54;94420.38;4959507;28;20219;-80
2022/12/15 11:47:39;;;;;;;56.67;30.23;;;;;;;0.11;79.05;94402.25;4956528;28;20274;-81
2022/12/15 11:50:16;;;;;;;54.83;29.90;;;;;;;0.15;80.48;94399.34;4960089;28;20188;-81
2022/12/15 11:53:07;;;;;;;55.83;29.47;;;;;;;0.01;81.53;94401.31;4936395;28;20269;-79
2022/12/15 11:55:53;;;;;;;57.60;32.23;;;;;;;-0.17;82.84;94388.97;4974104;28;20215;-82
2022/12/15 11:58:51;;;;;;;56.97;31.43;;;;;;;-0.09;82.55;94376.47;4977909;28;20229;-84
2022/12/15 12:01:37;;;;;;;55.23;31.00;;;;;;;-0.14;82.80;94375.16;4965711;28;20642;-82
2022/12/15 12:04:14;;;;;;;58.27;32.13;;;;;;;-0.09;82.73;94375.63;4958743;28;20187;-83
2022/12/15 12:06:53;;;;;;;58.50;31.43;;;;;;;-0.05;82.11;94366.84;4957324;28;20563;-82
2022/12/15 12:09:27;;;;;;;59.43;31.63;;;;;;;-0.16;82.82;94354.06;4976319;28;20632;-83
2022/12/15 12:12:15;;;;;;;64.40;32.40;;;;;;;-0.17;82.82;94343.03;4959735;28;20197;-83
2022/12/15 12:15:14;;;;;;;53.63;31.60;;;;;;;-0.22;83.40;94352.75;4979211;28;20219;-83
2022/12/15 12:17:45;;;;;;;61.50;31.27;;;;;;;-0.13;83.66;94353.81;4955618;28;20258;-80
2022/12/15 12:20:19;;;;;;;55.37;29.67;;;;;;;-0.09;83.49;94350.09;4957979;28;20675;-81
2022/12/15 12:22:54;;;;;;;66.50;32.87;;;;;;;-0.03;83.09;94350.47;4939415;28;20202;-82
2022/12/15 12:25:22;;;;;;;57.60;30.07;;;;;;;0.12;81.69;94347.72;4957174;28;20301;-83
2022/12/15 12:27:55;;;;;;;56.30;30.63;;;;;;;0.13;81.40;94345.06;4959809;28;20638;-83
2022/12/15 12:30:22;;;;;;;57.47;31.40;;;;;;;0.33;80.98;94335.09;4957924;28;20198;-82
2022/12/15 12:32:54;;;;;;;56.60;32.23;;;;;;;0.33;80.27;94335.91;4942701;28;20204;-82
2022/12/15 12:35:25;;;;;;;63.70;31.47;;;;;;;0.33;80.71;94332.53;4958117;28;20230;-83
2022/12/15 12:38:04;;;;;;;54.73;30.33;;;;;;;0.39;80.79;94338.00;4944237;28;20195;-81
2022/12/15 12:40:39;;;;;;;56.37;29.70;;;;;;;0.52;79.73;94335.31;4954949;28;20266;-80
2022/12/15 12:43:05;;;;;;;53.57;28.83;;;;;;;0.62;79.47;94338.81;4957277;28;20604;-83
2022/12/15 12:45:51;;;;;;;54.67;29.03;;;;;;;0.59;78.81;94336.47;4941300;28;20208;-82
2022/12/15 12:48:35;;;;;;;51.80;28.73;;;;;;;0.55;78.72;94337.66;4956016;28;20192;-80
2022/12/15 12:51:11;;;;;;;49.13;28.07;;;;;;;0.83;78.30;94334.59;4959067;28;20192;-79
2022/12/15 12:53:37;;;;;;;51.63;29.27;;;;;;;0.84;77.78;94328.56;4941886;28;20660;-83
2022/12/15 12:56:02;;;;;;;51.13;27.97;;;;;;;0.40;77.77;94333.69;4957517;28;20222;-83
2022/12/15 12:58:38;;;;;;;48.13;27.93;;;;;;;0.84;77.90;94330.31;4954959;28;20239;-81
2022/12/15 13:01:09;;;;;;;53.03;29.23;;;;;;;0.74;77.70;94332.75;4935567;28;20223;-83
2022/12/15 13:03:38;;;;;;;51.20;28.47;;;;;;;0.91;76.86;94322.97;4958944;28;20216;-82
2022/12/15 13:06:41;;;;;;;50.17;28.83;;;;;;;0.63;76.88;94322.56;4942629;28;20208;-82
2022/12/15 13:09:16;;;;;;;47.60;28.90;;;;;;;0.61;78.43;94313.38;4960046;28;20191;-81
2022/12/15 13:11:47;;;;;;;48.33;27.07;;;;;;;0.62;77.31;94305.59;4974026;28;20282;-82
2022/12/15 13:14:34;;;;;;;50.07;27.60;;;;;;;0.37;78.75;94303.28;4976375;28;20192;-82
2022/12/15 13:17:03;;;;;;;46.07;27.00;;;;;;;0.22;78.67;94307.81;4956732;28;20686;-80
2022/12/15 13:19:56;;;;;;;49.57;27.27;;;;;;;0.39;79.56;94298.88;4940185;28;20216;-83
2022/12/15 13:22:27;;;;;;;51.37;28.60;;;;;;;0.16;80.12;94293.75;4977949;28;20683;-83
2022/12/15 13:24:55;;;;;;;56.43;28.00;;;;;;;0.03;80.38;94292.25;4941896;28;20226;-82
2022/12/15 13:27:21;;;;;;;49.10;28.80;;;;;;;-0.06;81.35;94288.66;4939579;28;20228;-80
2022/12/15 13:29:55;;;;;;;51.90;29.97;;;;;;;-0.10;81.20;94280.41;4950777;28;20215;-83
2022/12/15 13:32:36;;;;;;;51.30;28.40;;;;;;;-0.04;81.21;94276.59;4939102;28;20196;-81
2022/12/15 13:35:25;;;;;;;48.03;26.73;;;;;;;0.08;81.10;94274.84;4956866;28;20237;-81
2022/12/15 13:37:54;;;;;;;49.50;26.97;;;;;;;0.06;80.78;94272.41;4941003;28;20290;-81
2022/12/15 13:40:34;;;;;;;47.07;27.00;;;;;;;0.07;80.78;94257.91;4940694;28;20215;-81
2022/12/15 13:43:02;;;;;;;46.83;27.80;;;;;;;0.04;80.98;94264.06;4974696;28;20194;-82
2022/12/15 13:45:35;;;;;;;51.10;28.43;;;;;;;-0.06;81.70;94269.03;4958183;28;20219;-81
2022/12/15 13:48:05;;;;;;;52.07;28.30;;;;;;;-0.18;81.76;94261.47;4961931;28;20207;-80
2022/12/15 13:50:38;;;;;;;50.77;28.13;;;;;;;-0.47;83.17;94264.44;4953952;28;20197;-81
2022/12/15 13:53:09;;;;;;;52.33;28.67;;;;;;;-0.74;85.29;94266.47;4957247;28;20191;-81
2022/12/15 13:55:37;;;;;;;50.93;28.93;;;;;;;-0.66;84.95;94259.88;4957079;28;20224;-83
2022/12/15 13:58:14;;;;;;;57.17;28.53;;;;;;;-0.55;84.90;94254.00;4957158;28;20235;-80
2022/12/15 14:00:47;;;;;;;55.87;29.97;;;;;;;-0.52;85.26;94256.34;4956724;28;20583;-80
2022/12/15 14:03:12;;;;;;;50.70;27.53;;;;;;;-0.69;85.31;94256.75;4941627;28;20195;-82
2022/12/15 14:05:41;;;;;;;54.50;29.47;;;;;;;-0.71;85.06;94264.50;4953044;28;20259;-82